createdAt,value
2023-03-24T00:03:52.489Z,14.10
2023-03-24T00:08:47.906Z,14.10
2023-03-24T00:13:40.407Z,14.10
2023-03-24T00:18:32.550Z,14.00
2023-03-24T00:23:33.975Z,14.00
2023-03-24T00:28:26.028Z,14.00
2023-03-24T00:33:18.285Z,13.90
2023-03-24T00:38:10.443Z,13.90
2023-03-24T00:43:03.817Z,13.90
2023-03-24T00:47:58.096Z,13.80
2023-03-24T00:52:50.688Z,13.80
2023-03-24T00:57:50.265Z,13.80
2023-03-24T01:02:43.738Z,13.80
2023-03-24T01:07:35.944Z,13.80
2023-03-24T01:12:33.014Z,13.80
2023-03-24T01:17:26.489Z,13.80
2023-03-24T01:22:20.619Z,13.80
2023-03-24T01:27:13.425Z,13.70
2023-03-24T01:32:06.816Z,13.70
2023-03-24T01:36:59.528Z,13.70
2023-03-24T01:41:51.696Z,13.70
2023-03-24T01:46:43.755Z,13.70
2023-03-24T01:51:42.034Z,13.70
2023-03-24T01:56:41.550Z,13.70
2023-03-24T02:01:33.696Z,13.70
2023-03-24T02:13:19.812Z,13.80
2023-03-24T02:18:54.911Z,13.80
2023-03-24T02:24:19.692Z,13.90
2023-03-24T02:29:27.881Z,13.90
2023-03-24T02:34:50.822Z,13.90
2023-03-24T02:40:21.714Z,13.90
2023-03-24T02:45:25.317Z,13.80
2023-03-24T02:50:23.447Z,13.90
2023-03-24T02:55:28.096Z,13.90
2023-03-24T03:00:32.772Z,13.90
2023-03-24T03:05:42.186Z,14.00
2023-03-24T03:10:40.870Z,13.90
2023-03-24T03:15:37.854Z,13.80
2023-03-24T03:20:34.804Z,13.80
2023-03-24T03:25:33.490Z,13.70
2023-03-24T03:30:37.675Z,13.70
2023-03-24T03:35:31.504Z,13.80
2023-03-24T03:40:27.163Z,13.80
2023-03-24T03:45:27.254Z,13.80
2023-03-24T03:50:19.577Z,13.80
2023-03-24T03:55:13.651Z,13.80
2023-03-24T04:00:15.716Z,13.90
2023-03-24T04:05:36.380Z,14.00
2023-03-24T04:11:01.971Z,13.90
2023-03-24T04:16:14.611Z,13.80
2023-03-24T04:21:59.304Z,13.60
2023-03-24T04:27:01.156Z,13.50
2023-03-24T04:32:14.479Z,13.50
2023-03-24T04:37:13.873Z,13.40
2023-03-24T04:42:25.809Z,13.40
2023-03-24T04:47:22.960Z,13.30
2023-03-24T04:52:34.967Z,13.40
2023-03-24T04:57:28.008Z,13.50
2023-03-24T05:02:28.833Z,13.50
2023-03-24T05:07:25.093Z,13.50
2023-03-24T05:12:21.686Z,13.50
2023-03-24T05:17:43.816Z,13.50
2023-03-24T05:22:38.041Z,13.50
2023-03-24T05:27:30.545Z,13.50
2023-03-24T05:32:25.766Z,13.50
2023-03-24T05:37:18.247Z,13.60
2023-03-24T05:42:15.996Z,13.60
2023-03-24T05:47:08.237Z,13.60
2023-03-24T05:52:00.568Z,13.70
2023-03-24T05:56:53.106Z,13.80
2023-03-24T06:02:09.448Z,13.80
2023-03-24T06:07:20.116Z,14.00
2023-03-24T06:12:14.663Z,14.00
2023-03-24T06:17:15.403Z,14.10
2023-03-24T06:22:10.428Z,14.10
2023-03-24T06:27:08.998Z,14.10
2023-03-24T06:32:01.450Z,14.10
2023-03-24T06:36:56.578Z,14.20
2023-03-24T06:41:48.816Z,14.20
2023-03-24T06:46:41.171Z,14.30
2023-03-24T06:51:34.742Z,14.30
2023-03-24T06:56:27.169Z,14.40
2023-03-24T07:01:24.512Z,14.50
2023-03-24T07:06:27.032Z,14.60
2023-03-24T07:11:21.682Z,14.70
2023-03-24T07:16:18.242Z,14.70
2023-03-24T07:21:13.374Z,14.90
2023-03-24T07:26:06.308Z,14.90
2023-03-24T07:31:22.970Z,15.00
2023-03-24T07:36:21.703Z,15.10
2023-03-24T07:41:13.755Z,15.20
2023-03-24T07:46:12.137Z,15.40
2023-03-24T07:51:04.389Z,15.40
2023-03-24T07:56:22.549Z,15.50
2023-03-24T08:01:19.991Z,15.70
2023-03-24T08:06:15.787Z,15.80
2023-03-24T08:11:25.863Z,15.90
2023-03-24T08:16:18.059Z,16.30
2023-03-24T08:21:13.355Z,16.60
2023-03-24T08:26:07.194Z,16.90
2023-03-24T08:30:59.528Z,17.20
2023-03-24T08:35:52.848Z,17.20
2023-03-24T08:40:45.187Z,17.20
2023-03-24T08:45:37.606Z,17.30
2023-03-24T08:50:34.596Z,17.60
2023-03-24T08:55:27.056Z,17.50
2023-03-24T09:00:20.999Z,17.50
2023-03-24T09:05:15.550Z,17.50
2023-03-24T09:10:10.078Z,17.60
2023-03-24T09:15:02.495Z,17.70
2023-03-24T09:19:55.215Z,17.60
2023-03-24T09:24:49.299Z,17.70
2023-03-24T09:29:41.819Z,18.10
2023-03-24T09:34:34.021Z,18.30
2023-03-24T09:39:26.042Z,18.30
2023-03-24T09:44:40.096Z,18.60
2023-03-24T09:49:37.311Z,18.50
2023-03-24T09:54:54.845Z,18.30
2023-03-24T09:59:46.949Z,18.40
2023-03-24T10:04:38.970Z,18.70
2023-03-24T10:09:36.336Z,19.10
2023-03-24T10:14:59.570Z,19.40
2023-03-24T10:20:16.050Z,19.60
2023-03-24T10:25:19.713Z,19.50
2023-03-24T10:30:41.411Z,19.10
2023-03-24T10:35:43.697Z,18.90
2023-03-24T10:40:35.925Z,19.20
2023-03-24T10:45:33.518Z,19.20
2023-03-24T10:50:28.412Z,19.30
2023-03-24T10:55:23.989Z,19.20
2023-03-24T11:00:24.610Z,19.30
2023-03-24T11:05:20.067Z,19.70
2023-03-24T11:10:16.724Z,20.30
2023-03-24T11:15:26.261Z,20.10
2023-03-24T11:20:35.522Z,19.90
2023-03-24T11:25:30.614Z,19.80
2023-03-24T11:30:23.953Z,19.40
2023-03-24T11:35:18.566Z,19.50
2023-03-24T11:40:23.485Z,20.00
2023-03-24T11:45:39.465Z,21.00
2023-03-24T11:50:41.798Z,21.60
2023-03-24T11:55:54.722Z,21.60
2023-03-24T12:01:02.100Z,21.80
2023-03-24T12:06:11.049Z,21.80
2023-03-24T12:11:03.118Z,21.90
2023-03-24T12:16:00.792Z,22.00
2023-03-24T12:21:18.622Z,22.50
2023-03-24T12:26:14.440Z,22.70
2023-03-24T12:31:19.533Z,22.20
2023-03-24T12:36:39.334Z,21.50
2023-03-24T12:41:45.611Z,20.70
2023-03-24T12:47:21.927Z,20.00
2023-03-24T12:52:25.874Z,19.70
2023-03-24T12:57:21.737Z,19.60
2023-03-24T13:02:16.681Z,19.70
2023-03-24T13:07:17.866Z,19.60
2023-03-24T13:12:24.531Z,19.30
2023-03-24T13:17:26.723Z,18.90
2023-03-24T13:22:21.451Z,18.90
2023-03-24T13:27:27.661Z,18.70
2023-03-24T13:32:23.574Z,18.50
2023-03-24T13:37:24.608Z,18.50
2023-03-24T13:42:33.700Z,18.60
2023-03-24T13:47:26.538Z,18.60
2023-03-24T13:52:31.419Z,18.50
2023-03-24T13:57:25.166Z,18.40
2023-03-24T14:02:40.782Z,17.80
2023-03-24T14:07:43.744Z,17.20
2023-03-24T14:13:00.618Z,16.40
2023-03-24T14:18:14.485Z,15.30
2023-03-24T14:23:24.366Z,14.40
2023-03-24T14:28:28.572Z,13.90
2023-03-24T14:33:26.023Z,13.80
2023-03-24T14:38:23.626Z,13.80
2023-03-24T14:43:41.740Z,13.90
2023-03-24T14:49:02.850Z,14.50
2023-03-24T14:53:58.426Z,14.60
2023-03-24T14:58:56.135Z,14.50
2023-03-24T15:04:07.199Z,14.40
2023-03-24T15:09:07.552Z,14.50
2023-03-24T15:14:03.719Z,14.80
2023-03-24T15:19:10.459Z,14.90
2023-03-24T15:24:26.847Z,14.70
2023-03-24T15:29:19.300Z,14.40
2023-03-24T15:34:30.022Z,14.20
2023-03-24T15:39:29.421Z,14.00
2023-03-24T15:44:26.784Z,13.80
2023-03-24T15:49:30.880Z,13.70
2023-03-24T15:54:32.134Z,13.70
2023-03-24T15:59:24.141Z,13.80
2023-03-24T16:04:19.169Z,14.00
2023-03-24T16:09:15.361Z,14.20
2023-03-24T16:14:28.897Z,14.20
2023-03-24T16:19:21.158Z,14.00
2023-03-24T16:24:14.650Z,13.80
2023-03-24T16:29:16.876Z,13.70
2023-03-24T16:34:11.630Z,13.70
2023-03-24T16:39:09.935Z,13.60
2023-03-24T16:44:02.028Z,13.60
2023-03-24T16:48:57.141Z,13.50
2023-03-24T16:53:50.811Z,13.50
2023-03-24T16:58:48.221Z,13.40
2023-03-24T17:03:40.417Z,13.30
2023-03-24T17:08:35.529Z,13.20
2023-03-24T17:13:27.497Z,13.00
2023-03-24T17:18:22.455Z,12.90
2023-03-24T17:23:18.734Z,12.70
2023-03-24T17:28:16.304Z,12.40
2023-03-24T17:33:14.993Z,12.20
2023-03-24T17:38:07.098Z,12.00
2023-03-24T17:42:59.034Z,11.90
2023-03-24T17:47:51.125Z,11.80
2023-03-24T17:52:46.347Z,11.80
2023-03-24T17:57:42.102Z,11.70
2023-03-24T18:02:34.214Z,11.80
2023-03-24T18:07:26.288Z,11.70
2023-03-24T18:12:22.346Z,11.60
2023-03-24T18:17:15.883Z,11.60
2023-03-24T18:22:08.442Z,11.60
2023-03-24T18:27:02.639Z,11.50
2023-03-24T18:32:00.465Z,11.50
2023-03-24T18:36:52.946Z,11.50
2023-03-24T18:41:45.009Z,11.50
2023-03-24T18:46:38.880Z,11.50
2023-03-24T18:51:33.005Z,11.50
2023-03-24T18:56:26.084Z,11.40
2023-03-24T19:01:23.116Z,11.50
2023-03-24T19:06:19.044Z,11.40
2023-03-24T19:11:12.392Z,11.40
2023-03-24T19:16:05.675Z,11.30
2023-03-24T19:21:02.156Z,11.30
2023-03-24T19:25:55.194Z,11.20
2023-03-24T19:30:47.533Z,11.10
2023-03-24T19:35:40.250Z,10.90
2023-03-24T19:40:32.370Z,10.80
2023-03-24T19:45:25.511Z,10.70
2023-03-24T19:50:20.676Z,10.50
2023-03-24T19:55:14.326Z,10.50
2023-03-24T20:00:09.645Z,10.60
2023-03-24T20:05:01.719Z,10.70
2023-03-24T20:09:53.737Z,10.60
2023-03-24T20:14:45.903Z,10.50
2023-03-24T20:19:37.928Z,10.40
2023-03-24T20:24:38.693Z,10.30
2023-03-24T20:29:33.919Z,10.30
2023-03-24T20:34:29.000Z,10.20
2023-03-24T20:39:21.228Z,10.20
2023-03-24T20:44:13.346Z,10.20
2023-03-24T20:49:05.540Z,10.20
2023-03-24T20:53:57.841Z,10.20
2023-03-24T20:58:52.810Z,10.10
2023-03-24T21:03:46.270Z,10.20
2023-03-24T21:08:38.348Z,10.20
2023-03-24T21:13:37.311Z,10.20
2023-03-24T21:18:32.433Z,10.20
2023-03-24T21:23:25.112Z,10.20
2023-03-24T21:28:18.561Z,10.00
2023-03-24T21:33:10.721Z,10.00
2023-03-24T21:38:05.530Z,10.00
2023-03-24T21:43:05.105Z,9.90
2023-03-24T21:47:57.155Z,9.80
2023-03-24T21:52:50.700Z,9.70
2023-03-24T21:57:46.983Z,9.50
2023-03-24T22:02:39.802Z,9.50
2023-03-24T22:07:37.758Z,9.20
2023-03-24T22:12:33.869Z,9.40
2023-03-24T22:17:29.093Z,9.70
2023-03-24T22:22:21.271Z,9.90
2023-03-24T22:27:13.384Z,10.20
2023-03-24T22:32:12.358Z,10.60
2023-03-24T22:37:04.392Z,10.70
2023-03-24T22:41:57.145Z,10.90
2023-03-24T22:46:49.352Z,11.20
2023-03-24T22:51:42.053Z,11.60
2023-03-24T22:56:34.053Z,11.80
2023-03-24T23:01:26.223Z,11.90
2023-03-24T23:06:19.759Z,12.00
2023-03-24T23:11:12.030Z,12.10
2023-03-24T23:16:04.675Z,12.10
2023-03-24T23:21:09.433Z,12.00
2023-03-24T23:26:01.524Z,12.00
2023-03-24T23:30:55.696Z,12.00
2023-03-24T23:35:50.657Z,12.00
2023-03-24T23:40:44.604Z,11.90
2023-03-24T23:45:36.703Z,11.80
2023-03-24T23:50:29.542Z,11.70
2023-03-24T23:55:22.220Z,11.60
